Terminal Aerodrome Forecast
Issued by NWS Duluth, MN

Home | Current Version | Previous Version | Text Only | Print | Product List | Glossary On
Versions: 1 2 3 4 5 6 7 8 9 10 11 12 13 14 15 16 17 18 19 20 21
000
FTUS43 KDLH 190500 RRA
TAFINL
TAF
KINL 190555Z 1906/2006 13011KT P6SM BKN120
     FM191000 12009KT P6SM VCSH OVC050
      TEMPO 1910/1914 5SM -RA BR BKN025 OVC040
     FM191400 12004KT 3SM -RA BR OVC012
     FM192000 30011KT 5SM -RA BR OVC015
     FM200100 29009KT P6SM VCSH OVC020=

USA.gov is the U.S. government's official web portal to all federal, state and local government web resources and services.